sensor_id;sensor_type;location;lat;lon;timestamp;P1;durP1;ratioP1;P2;durP2;ratioP2
28724;SDS011;43472;48.980;9.646;2023-11-19T00:01:18;1.98;;;1.13;;
28724;SDS011;43472;48.980;9.646;2023-11-19T00:06:20;2.08;;;1.10;;
28724;SDS011;43472;48.980;9.646;2023-11-19T00:11:22;5.85;;;1.38;;
28724;SDS011;43472;48.980;9.646;2023-11-19T00:16:24;3.60;;;2.08;;
28724;SDS011;43472;48.980;9.646;2023-11-19T00:21:26;1.33;;;1.23;;
28724;SDS011;43472;48.980;9.646;2023-11-19T00:26:29;3.30;;;1.20;;
28724;SDS011;43472;48.980;9.646;2023-11-19T00:31:31;1.35;;;1.10;;
28724;SDS011;43472;48.980;9.646;2023-11-19T00:36:33;2.88;;;1.40;;
28724;SDS011;43472;48.980;9.646;2023-11-19T00:41:35;1.23;;;1.13;;
28724;SDS011;43472;48.980;9.646;2023-11-19T00:46:37;5.60;;;1.35;;
28724;SDS011;43472;48.980;9.646;2023-11-19T00:51:38;2.33;;;1.15;;
28724;SDS011;43472;48.980;9.646;2023-11-19T00:56:40;2.25;;;0.90;;
28724;SDS011;43472;48.980;9.646;2023-11-19T01:01:42;1.50;;;1.08;;
28724;SDS011;43472;48.980;9.646;2023-11-19T01:06:44;4.50;;;1.08;;
28724;SDS011;43472;48.980;9.646;2023-11-19T01:11:50;2.28;;;1.10;;
28724;SDS011;43472;48.980;9.646;2023-11-19T01:16:52;1.40;;;1.00;;
28724;SDS011;43472;48.980;9.646;2023-11-19T01:21:55;0.82;;;0.80;;
28724;SDS011;43472;48.980;9.646;2023-11-19T01:26:58;0.63;;;0.63;;
28724;SDS011;43472;48.980;9.646;2023-11-19T01:32:01;1.23;;;0.70;;
28724;SDS011;43472;48.980;9.646;2023-11-19T01:37:03;3.58;;;1.02;;
28724;SDS011;43472;48.980;9.646;2023-11-19T01:42:06;0.75;;;0.75;;
28724;SDS011;43472;48.980;9.646;2023-11-19T01:47:08;0.73;;;0.63;;
28724;SDS011;43472;48.980;9.646;2023-11-19T01:52:10;1.40;;;0.43;;
28724;SDS011;43472;48.980;9.646;2023-11-19T01:57:12;1.58;;;0.60;;
28724;SDS011;43472;48.980;9.646;2023-11-19T02:02:15;3.47;;;0.65;;
28724;SDS011;43472;48.980;9.646;2023-11-19T02:07:17;0.73;;;0.55;;
28724;SDS011;43472;48.980;9.646;2023-11-19T02:12:19;0.75;;;0.68;;
28724;SDS011;43472;48.980;9.646;2023-11-19T02:17:31;1.85;;;0.43;;
28724;SDS011;43472;48.980;9.646;2023-11-19T02:27:51;0.98;;;0.70;;
28724;SDS011;43472;48.980;9.646;2023-11-19T02:32:58;1.80;;;0.65;;
28724;SDS011;43472;48.980;9.646;2023-11-19T02:38:04;2.38;;;0.38;;
28724;SDS011;43472;48.980;9.646;2023-11-19T02:43:08;1.08;;;0.47;;
28724;SDS011;43472;48.980;9.646;2023-11-19T02:48:10;1.70;;;0.35;;
28724;SDS011;43472;48.980;9.646;2023-11-19T02:53:12;2.70;;;0.50;;
28724;SDS011;43472;48.980;9.646;2023-11-19T02:58:14;0.40;;;0.40;;
28724;SDS011;43472;48.980;9.646;2023-11-19T03:03:25;0.20;;;0.20;;
28724;SDS011;43472;48.980;9.646;2023-11-19T03:08:39;2.17;;;0.65;;
28724;SDS011;43472;48.980;9.646;2023-11-19T03:13:41;0.82;;;0.50;;
28724;SDS011;43472;48.980;9.646;2023-11-19T03:18:43;0.70;;;0.70;;
28724;SDS011;43472;48.980;9.646;2023-11-19T03:23:45;4.55;;;1.85;;
28724;SDS011;43472;48.980;9.646;2023-11-19T03:28:47;3.20;;;1.83;;
28724;SDS011;43472;48.980;9.646;2023-11-19T03:33:48;3.75;;;2.50;;
28724;SDS011;43472;48.980;9.646;2023-11-19T03:38:50;2.72;;;2.10;;
28724;SDS011;43472;48.980;9.646;2023-11-19T03:43:53;3.05;;;1.80;;
28724;SDS011;43472;48.980;9.646;2023-11-19T03:48:55;1.30;;;1.20;;
28724;SDS011;43472;48.980;9.646;2023-11-19T03:53:57;0.85;;;0.80;;
28724;SDS011;43472;48.980;9.646;2023-11-19T03:58:58;1.17;;;0.30;;
28724;SDS011;43472;48.980;9.646;2023-11-19T04:04:00;0.38;;;0.30;;
28724;SDS011;43472;48.980;9.646;2023-11-19T04:09:02;0.50;;;0.35;;
28724;SDS011;43472;48.980;9.646;2023-11-19T04:14:04;0.25;;;0.25;;
28724;SDS011;43472;48.980;9.646;2023-11-19T04:19:06;0.25;;;0.25;;
28724;SDS011;43472;48.980;9.646;2023-11-19T04:24:09;0.75;;;0.22;;
28724;SDS011;43472;48.980;9.646;2023-11-19T04:29:15;0.47;;;0.30;;
28724;SDS011;43472;48.980;9.646;2023-11-19T04:34:20;0.47;;;0.28;;
28724;SDS011;43472;48.980;9.646;2023-11-19T04:39:22;1.30;;;0.40;;
28724;SDS011;43472;48.980;9.646;2023-11-19T04:44:24;3.17;;;0.40;;
28724;SDS011;43472;48.980;9.646;2023-11-19T04:49:26;0.20;;;0.20;;
28724;SDS011;43472;48.980;9.646;2023-11-19T04:54:28;0.85;;;0.40;;
28724;SDS011;43472;48.980;9.646;2023-11-19T04:59:30;0.57;;;0.45;;
28724;SDS011;43472;48.980;9.646;2023-11-19T05:04:32;0.40;;;0.30;;
28724;SDS011;43472;48.980;9.646;2023-11-19T05:09:34;0.22;;;0.20;;
28724;SDS011;43472;48.980;9.646;2023-11-19T05:14:36;0.10;;;0.10;;
28724;SDS011;43472;48.980;9.646;2023-11-19T05:19:38;0.20;;;0.20;;
28724;SDS011;43472;48.980;9.646;2023-11-19T05:24:40;2.40;;;0.20;;
28724;SDS011;43472;48.980;9.646;2023-11-19T05:29:42;0.20;;;0.20;;
28724;SDS011;43472;48.980;9.646;2023-11-19T05:34:44;0.25;;;0.20;;
28724;SDS011;43472;48.980;9.646;2023-11-19T05:39:49;0.47;;;0.22;;
28724;SDS011;43472;48.980;9.646;2023-11-19T05:44:51;0.45;;;0.20;;
28724;SDS011;43472;48.980;9.646;2023-11-19T05:49:53;0.10;;;0.10;;
28724;SDS011;43472;48.980;9.646;2023-11-19T05:54:54;0.85;;;0.25;;
28724;SDS011;43472;48.980;9.646;2023-11-19T05:59:56;0.47;;;0.20;;
28724;SDS011;43472;48.980;9.646;2023-11-19T06:05:00;0.45;;;0.30;;
28724;SDS011;43472;48.980;9.646;2023-11-19T06:10:02;1.65;;;0.55;;
28724;SDS011;43472;48.980;9.646;2023-11-19T06:15:08;2.17;;;0.40;;
28724;SDS011;43472;48.980;9.646;2023-11-19T06:20:10;1.00;;;0.20;;
28724;SDS011;43472;48.980;9.646;2023-11-19T06:25:13;0.90;;;0.17;;
28724;SDS011;43472;48.980;9.646;2023-11-19T06:30:16;0.15;;;0.10;;
28724;SDS011;43472;48.980;9.646;2023-11-19T06:35:18;3.38;;;0.17;;
28724;SDS011;43472;48.980;9.646;2023-11-19T06:40:19;0.17;;;0.17;;
28724;SDS011;43472;48.980;9.646;2023-11-19T06:45:21;1.85;;;0.30;;
28724;SDS011;43472;48.980;9.646;2023-11-19T06:50:23;1.30;;;0.57;;
28724;SDS011;43472;48.980;9.646;2023-11-19T06:55:26;0.93;;;0.20;;
28724;SDS011;43472;48.980;9.646;2023-11-19T07:00:28;0.20;;;0.20;;
28724;SDS011;43472;48.980;9.646;2023-11-19T07:05:30;0.47;;;0.43;;
28724;SDS011;43472;48.980;9.646;2023-11-19T07:10:32;0.80;;;0.50;;
28724;SDS011;43472;48.980;9.646;2023-11-19T07:15:34;0.30;;;0.30;;
28724;SDS011;43472;48.980;9.646;2023-11-19T07:20:36;0.70;;;0.43;;
28724;SDS011;43472;48.980;9.646;2023-11-19T07:25:39;1.50;;;0.40;;
28724;SDS011;43472;48.980;9.646;2023-11-19T07:30:40;1.02;;;0.30;;
28724;SDS011;43472;48.980;9.646;2023-11-19T07:35:43;1.70;;;0.20;;
28724;SDS011;43472;48.980;9.646;2023-11-19T07:40:45;2.90;;;0.50;;
28724;SDS011;43472;48.980;9.646;2023-11-19T07:45:49;0.25;;;0.20;;
28724;SDS011;43472;48.980;9.646;2023-11-19T07:50:52;1.77;;;0.68;;
28724;SDS011;43472;48.980;9.646;2023-11-19T07:55:54;0.22;;;0.22;;
28724;SDS011;43472;48.980;9.646;2023-11-19T08:00:55;0.70;;;0.38;;
28724;SDS011;43472;48.980;9.646;2023-11-19T08:05:57;0.30;;;0.30;;
28724;SDS011;43472;48.980;9.646;2023-11-19T08:10:59;0.60;;;0.38;;
28724;SDS011;43472;48.980;9.646;2023-11-19T08:16:01;2.80;;;1.23;;
28724;SDS011;43472;48.980;9.646;2023-11-19T08:21:03;0.50;;;0.50;;
28724;SDS011;43472;48.980;9.646;2023-11-19T08:26:06;1.48;;;0.98;;
28724;SDS011;43472;48.980;9.646;2023-11-19T08:31:08;2.33;;;0.50;;
28724;SDS011;43472;48.980;9.646;2023-11-19T08:36:14;4.22;;;0.98;;
28724;SDS011;43472;48.980;9.646;2023-11-19T08:41:17;0.88;;;0.73;;
28724;SDS011;43472;48.980;9.646;2023-11-19T08:46:20;0.75;;;0.60;;
28724;SDS011;43472;48.980;9.646;2023-11-19T08:51:22;0.70;;;0.52;;
28724;SDS011;43472;48.980;9.646;2023-11-19T08:56:26;0.80;;;0.80;;
28724;SDS011;43472;48.980;9.646;2023-11-19T09:01:33;3.30;;;1.00;;
28724;SDS011;43472;48.980;9.646;2023-11-19T09:06:35;1.38;;;0.82;;
28724;SDS011;43472;48.980;9.646;2023-11-19T09:11:37;5.28;;;4.22;;
28724;SDS011;43472;48.980;9.646;2023-11-19T09:16:39;0.75;;;0.68;;
28724;SDS011;43472;48.980;9.646;2023-11-19T09:21:41;2.45;;;0.85;;
28724;SDS011;43472;48.980;9.646;2023-11-19T09:26:43;4.13;;;1.42;;
28724;SDS011;43472;48.980;9.646;2023-11-19T09:31:44;0.32;;;0.22;;
28724;SDS011;43472;48.980;9.646;2023-11-19T09:36:46;2.33;;;1.33;;
28724;SDS011;43472;48.980;9.646;2023-11-19T09:41:48;3.63;;;1.83;;
28724;SDS011;43472;48.980;9.646;2023-11-19T09:46:50;6.57;;;2.83;;
28724;SDS011;43472;48.980;9.646;2023-11-19T09:51:54;1.88;;;0.93;;
28724;SDS011;43472;48.980;9.646;2023-11-19T09:56:56;1.33;;;0.65;;
28724;SDS011;43472;48.980;9.646;2023-11-19T10:02:05;3.13;;;0.63;;
28724;SDS011;43472;48.980;9.646;2023-11-19T10:07:11;3.38;;;1.15;;
28724;SDS011;43472;48.980;9.646;2023-11-19T10:12:13;3.22;;;1.30;;
28724;SDS011;43472;48.980;9.646;2023-11-19T10:17:15;12.25;;;4.65;;
28724;SDS011;43472;48.980;9.646;2023-11-19T10:22:17;4.15;;;0.63;;
28724;SDS011;43472;48.980;9.646;2023-11-19T10:27:19;1.92;;;0.93;;
28724;SDS011;43472;48.980;9.646;2023-11-19T10:32:22;3.97;;;1.40;;
28724;SDS011;43472;48.980;9.646;2023-11-19T10:37:28;2.03;;;1.30;;
28724;SDS011;43472;48.980;9.646;2023-11-19T10:42:33;8.52;;;4.20;;
28724;SDS011;43472;48.980;9.646;2023-11-19T10:47:34;10.82;;;5.72;;
28724;SDS011;43472;48.980;9.646;2023-11-19T10:52:39;2.78;;;0.75;;
28724;SDS011;43472;48.980;9.646;2023-11-19T10:57:42;1.13;;;0.70;;
28724;SDS011;43472;48.980;9.646;2023-11-19T11:02:48;3.40;;;1.60;;
28724;SDS011;43472;48.980;9.646;2023-11-19T11:07:55;2.05;;;0.93;;
28724;SDS011;43472;48.980;9.646;2023-11-19T11:12:58;4.40;;;2.08;;
28724;SDS011;43472;48.980;9.646;2023-11-19T11:18:01;2.78;;;1.25;;
28724;SDS011;43472;48.980;9.646;2023-11-19T11:39:05;5.47;;;3.35;;
28724;SDS011;43472;48.980;9.646;2023-11-19T11:44:09;3.05;;;0.55;;
28724;SDS011;43472;48.980;9.646;2023-11-19T11:49:11;1.35;;;0.60;;
28724;SDS011;43472;48.980;9.646;2023-11-19T11:59:23;3.00;;;0.60;;
28724;SDS011;43472;48.980;9.646;2023-11-19T12:04:28;1.63;;;0.55;;
28724;SDS011;43472;48.980;9.646;2023-11-19T12:09:30;2.13;;;0.73;;
28724;SDS011;43472;48.980;9.646;2023-11-19T12:20:06;2.42;;;0.38;;
28724;SDS011;43472;48.980;9.646;2023-11-19T12:25:13;4.10;;;0.50;;
28724;SDS011;43472;48.980;9.646;2023-11-19T12:30:24;3.67;;;0.68;;
28724;SDS011;43472;48.980;9.646;2023-11-19T12:35:27;0.85;;;0.50;;
28724;SDS011;43472;48.980;9.646;2023-11-19T12:40:29;0.73;;;0.50;;
28724;SDS011;43472;48.980;9.646;2023-11-19T12:45:35;4.72;;;0.75;;
28724;SDS011;43472;48.980;9.646;2023-11-19T12:50:50;3.15;;;0.77;;
28724;SDS011;43472;48.980;9.646;2023-11-19T12:55:55;1.90;;;1.08;;
28724;SDS011;43472;48.980;9.646;2023-11-19T13:01:00;1.95;;;0.73;;
28724;SDS011;43472;48.980;9.646;2023-11-19T13:06:10;6.32;;;1.20;;
28724;SDS011;43472;48.980;9.646;2023-11-19T13:11:13;2.53;;;0.60;;
28724;SDS011;43472;48.980;9.646;2023-11-19T13:16:16;3.10;;;0.77;;
28724;SDS011;43472;48.980;9.646;2023-11-19T13:21:21;2.58;;;0.93;;
28724;SDS011;43472;48.980;9.646;2023-11-19T13:26:23;1.65;;;0.70;;
28724;SDS011;43472;48.980;9.646;2023-11-19T13:31:25;1.50;;;0.75;;
28724;SDS011;43472;48.980;9.646;2023-11-19T13:36:28;2.97;;;0.70;;
28724;SDS011;43472;48.980;9.646;2023-11-19T13:41:30;3.40;;;0.80;;
28724;SDS011;43472;48.980;9.646;2023-11-19T13:46:32;3.70;;;1.45;;
28724;SDS011;43472;48.980;9.646;2023-11-19T13:51:33;4.80;;;2.40;;
28724;SDS011;43472;48.980;9.646;2023-11-19T13:56:35;2.45;;;1.33;;
28724;SDS011;43472;48.980;9.646;2023-11-19T14:01:37;4.20;;;1.20;;
28724;SDS011;43472;48.980;9.646;2023-11-19T14:06:39;1.73;;;0.80;;
28724;SDS011;43472;48.980;9.646;2023-11-19T14:11:40;1.17;;;0.70;;
28724;SDS011;43472;48.980;9.646;2023-11-19T14:16:43;3.08;;;1.98;;
28724;SDS011;43472;48.980;9.646;2023-11-19T14:21:46;3.58;;;2.38;;
28724;SDS011;43472;48.980;9.646;2023-11-19T14:26:49;2.75;;;0.80;;
28724;SDS011;43472;48.980;9.646;2023-11-19T14:31:52;1.67;;;0.93;;
28724;SDS011;43472;48.980;9.646;2023-11-19T14:36:57;3.38;;;1.20;;
28724;SDS011;43472;48.980;9.646;2023-11-19T14:41:59;2.13;;;1.38;;
28724;SDS011;43472;48.980;9.646;2023-11-19T14:47:05;2.92;;;0.50;;
28724;SDS011;43472;48.980;9.646;2023-11-19T14:52:07;1.30;;;0.63;;
28724;SDS011;43472;48.980;9.646;2023-11-19T14:57:12;4.00;;;1.30;;
28724;SDS011;43472;48.980;9.646;2023-11-19T15:02:15;4.63;;;1.10;;
28724;SDS011;43472;48.980;9.646;2023-11-19T15:07:16;2.78;;;0.88;;
28724;SDS011;43472;48.980;9.646;2023-11-19T15:12:18;7.10;;;2.45;;
28724;SDS011;43472;48.980;9.646;2023-11-19T15:17:23;10.02;;;4.93;;
28724;SDS011;43472;48.980;9.646;2023-11-19T15:22:27;7.97;;;4.63;;
28724;SDS011;43472;48.980;9.646;2023-11-19T15:27:29;9.85;;;4.68;;
28724;SDS011;43472;48.980;9.646;2023-11-19T15:32:31;13.30;;;5.88;;
28724;SDS011;43472;48.980;9.646;2023-11-19T15:37:33;25.35;;;11.50;;
28724;SDS011;43472;48.980;9.646;2023-11-19T15:42:35;9.60;;;4.60;;
28724;SDS011;43472;48.980;9.646;2023-11-19T15:47:37;11.00;;;5.10;;
28724;SDS011;43472;48.980;9.646;2023-11-19T15:52:42;5.38;;;3.15;;
28724;SDS011;43472;48.980;9.646;2023-11-19T15:57:45;5.25;;;3.20;;
28724;SDS011;43472;48.980;9.646;2023-11-19T16:02:47;4.60;;;0.70;;
28724;SDS011;43472;48.980;9.646;2023-11-19T16:07:51;3.58;;;0.60;;
28724;SDS011;43472;48.980;9.646;2023-11-19T16:12:53;4.18;;;1.30;;
28724;SDS011;43472;48.980;9.646;2023-11-19T16:17:55;4.70;;;1.52;;
28724;SDS011;43472;48.980;9.646;2023-11-19T16:22:58;4.38;;;1.40;;
28724;SDS011;43472;48.980;9.646;2023-11-19T16:28:01;3.15;;;1.67;;
28724;SDS011;43472;48.980;9.646;2023-11-19T16:33:03;8.32;;;1.83;;
28724;SDS011;43472;48.980;9.646;2023-11-19T16:38:12;12.55;;;1.50;;
28724;SDS011;43472;48.980;9.646;2023-11-19T16:43:14;3.15;;;1.02;;
28724;SDS011;43472;48.980;9.646;2023-11-19T16:48:16;3.35;;;0.98;;
28724;SDS011;43472;48.980;9.646;2023-11-19T16:53:18;1.83;;;0.88;;
28724;SDS011;43472;48.980;9.646;2023-11-19T16:58:20;2.17;;;0.90;;
28724;SDS011;43472;48.980;9.646;2023-11-19T17:03:23;1.55;;;0.50;;
28724;SDS011;43472;48.980;9.646;2023-11-19T17:08:25;1.65;;;0.93;;
28724;SDS011;43472;48.980;9.646;2023-11-19T17:13:27;2.90;;;0.82;;
28724;SDS011;43472;48.980;9.646;2023-11-19T17:18:29;5.88;;;3.00;;
28724;SDS011;43472;48.980;9.646;2023-11-19T17:23:31;7.50;;;3.00;;
28724;SDS011;43472;48.980;9.646;2023-11-19T17:28:33;1.55;;;0.77;;
28724;SDS011;43472;48.980;9.646;2023-11-19T17:33:38;3.22;;;1.67;;
28724;SDS011;43472;48.980;9.646;2023-11-19T17:38:40;5.20;;;1.73;;
28724;SDS011;43472;48.980;9.646;2023-11-19T17:43:41;7.13;;;1.70;;
28724;SDS011;43472;48.980;9.646;2023-11-19T17:48:43;15.88;;;3.03;;
28724;SDS011;43472;48.980;9.646;2023-11-19T17:53:45;11.13;;;5.32;;
28724;SDS011;43472;48.980;9.646;2023-11-19T17:58:47;17.15;;;9.00;;
28724;SDS011;43472;48.980;9.646;2023-11-19T18:03:49;11.75;;;6.22;;
28724;SDS011;43472;48.980;9.646;2023-11-19T18:08:51;23.55;;;12.57;;
28724;SDS011;43472;48.980;9.646;2023-11-19T18:13:53;13.02;;;5.90;;
28724;SDS011;43472;48.980;9.646;2023-11-19T18:18:56;5.50;;;2.50;;
28724;SDS011;43472;48.980;9.646;2023-11-19T18:23:58;53.90;;;28.52;;
28724;SDS011;43472;48.980;9.646;2023-11-19T18:29:00;19.95;;;8.90;;
28724;SDS011;43472;48.980;9.646;2023-11-19T18:34:02;4.30;;;3.90;;
28724;SDS011;43472;48.980;9.646;2023-11-19T18:39:04;9.75;;;5.00;;
28724;SDS011;43472;48.980;9.646;2023-11-19T18:44:06;5.32;;;1.92;;
28724;SDS011;43472;48.980;9.646;2023-11-19T18:49:08;6.43;;;3.50;;
28724;SDS011;43472;48.980;9.646;2023-11-19T18:54:11;5.80;;;2.78;;
28724;SDS011;43472;48.980;9.646;2023-11-19T18:59:16;4.82;;;2.25;;
28724;SDS011;43472;48.980;9.646;2023-11-19T19:04:17;8.07;;;2.50;;
28724;SDS011;43472;48.980;9.646;2023-11-19T19:09:20;7.70;;;4.22;;
28724;SDS011;43472;48.980;9.646;2023-11-19T19:14:23;12.55;;;3.40;;
28724;SDS011;43472;48.980;9.646;2023-11-19T19:19:25;5.20;;;2.47;;
28724;SDS011;43472;48.980;9.646;2023-11-19T19:24:26;22.15;;;11.32;;
28724;SDS011;43472;48.980;9.646;2023-11-19T19:29:28;40.47;;;20.60;;
28724;SDS011;43472;48.980;9.646;2023-11-19T19:34:31;16.75;;;9.25;;
28724;SDS011;43472;48.980;9.646;2023-11-19T19:39:33;12.65;;;5.40;;
28724;SDS011;43472;48.980;9.646;2023-11-19T19:44:35;11.65;;;5.70;;
28724;SDS011;43472;48.980;9.646;2023-11-19T19:49:37;20.17;;;10.68;;
28724;SDS011;43472;48.980;9.646;2023-11-19T19:54:39;13.98;;;5.15;;
28724;SDS011;43472;48.980;9.646;2023-11-19T19:59:41;22.77;;;9.77;;
28724;SDS011;43472;48.980;9.646;2023-11-19T20:04:44;6.10;;;2.70;;
28724;SDS011;43472;48.980;9.646;2023-11-19T20:09:49;16.48;;;2.13;;
28724;SDS011;43472;48.980;9.646;2023-11-19T20:14:51;10.52;;;3.92;;
28724;SDS011;43472;48.980;9.646;2023-11-19T20:19:53;4.90;;;1.80;;
28724;SDS011;43472;48.980;9.646;2023-11-19T20:24:55;9.50;;;3.15;;
28724;SDS011;43472;48.980;9.646;2023-11-19T20:29:57;11.70;;;2.75;;
28724;SDS011;43472;48.980;9.646;2023-11-19T20:34:59;14.90;;;5.53;;
28724;SDS011;43472;48.980;9.646;2023-11-19T20:40:01;14.15;;;5.03;;
28724;SDS011;43472;48.980;9.646;2023-11-19T20:45:07;9.38;;;3.22;;
28724;SDS011;43472;48.980;9.646;2023-11-19T20:50:13;26.00;;;10.57;;
28724;SDS011;43472;48.980;9.646;2023-11-19T20:55:15;13.13;;;2.70;;
28724;SDS011;43472;48.980;9.646;2023-11-19T21:00:17;14.82;;;4.00;;
28724;SDS011;43472;48.980;9.646;2023-11-19T21:05:20;12.75;;;3.60;;
28724;SDS011;43472;48.980;9.646;2023-11-19T21:10:22;11.38;;;3.33;;
28724;SDS011;43472;48.980;9.646;2023-11-19T21:15:24;6.80;;;1.83;;
28724;SDS011;43472;48.980;9.646;2023-11-19T21:20:26;9.02;;;2.08;;
28724;SDS011;43472;48.980;9.646;2023-11-19T21:25:28;12.40;;;3.47;;
28724;SDS011;43472;48.980;9.646;2023-11-19T21:30:31;15.20;;;4.85;;
28724;SDS011;43472;48.980;9.646;2023-11-19T21:35:33;32.88;;;12.98;;
28724;SDS011;43472;48.980;9.646;2023-11-19T21:40:35;16.77;;;4.68;;
28724;SDS011;43472;48.980;9.646;2023-11-19T21:45:37;6.90;;;2.70;;
28724;SDS011;43472;48.980;9.646;2023-11-19T21:50:41;11.65;;;2.55;;
28724;SDS011;43472;48.980;9.646;2023-11-19T21:55:43;6.07;;;1.50;;
28724;SDS011;43472;48.980;9.646;2023-11-19T22:00:45;13.20;;;3.05;;
28724;SDS011;43472;48.980;9.646;2023-11-19T22:05:47;9.65;;;2.30;;
28724;SDS011;43472;48.980;9.646;2023-11-19T22:10:48;14.40;;;2.40;;
28724;SDS011;43472;48.980;9.646;2023-11-19T22:15:50;11.98;;;1.90;;
28724;SDS011;43472;48.980;9.646;2023-11-19T22:20:52;11.98;;;2.90;;
28724;SDS011;43472;48.980;9.646;2023-11-19T22:25:54;6.57;;;1.40;;
28724;SDS011;43472;48.980;9.646;2023-11-19T22:30:57;9.48;;;1.55;;
28724;SDS011;43472;48.980;9.646;2023-11-19T22:35:59;7.53;;;1.80;;
28724;SDS011;43472;48.980;9.646;2023-11-19T22:41:02;10.98;;;1.90;;
28724;SDS011;43472;48.980;9.646;2023-11-19T22:46:04;10.70;;;1.75;;
28724;SDS011;43472;48.980;9.646;2023-11-19T22:51:08;9.65;;;1.98;;
28724;SDS011;43472;48.980;9.646;2023-11-19T22:56:10;16.60;;;2.25;;
28724;SDS011;43472;48.980;9.646;2023-11-19T23:01:20;9.98;;;2.40;;
28724;SDS011;43472;48.980;9.646;2023-11-19T23:06:22;10.45;;;1.52;;
28724;SDS011;43472;48.980;9.646;2023-11-19T23:11:24;12.77;;;1.63;;
28724;SDS011;43472;48.980;9.646;2023-11-19T23:16:26;16.73;;;2.10;;
28724;SDS011;43472;48.980;9.646;2023-11-19T23:21:28;9.18;;;1.70;;
28724;SDS011;43472;48.980;9.646;2023-11-19T23:26:30;16.65;;;3.03;;
28724;SDS011;43472;48.980;9.646;2023-11-19T23:31:31;14.02;;;1.70;;
28724;SDS011;43472;48.980;9.646;2023-11-19T23:36:33;6.15;;;1.20;;
28724;SDS011;43472;48.980;9.646;2023-11-19T23:41:35;10.95;;;1.67;;
28724;SDS011;43472;48.980;9.646;2023-11-19T23:46:37;13.95;;;2.20;;
28724;SDS011;43472;48.980;9.646;2023-11-19T23:51:39;12.65;;;1.50;;
28724;SDS011;43472;48.980;9.646;2023-11-19T23:56:42;10.23;;;1.60;;
